Time;durP1;ratioP1;P1;durP2;ratioP2;P2;SDS_P1;SDS_P2;PMS_P1;PMS_P2;Temp;Humidity;BMP_temperature;BMP_pressure;BME280_temperature;BME280_humidity;BME280_pressure;Samples;Min_cycle;Max_cycle;Signal;HPM_P1;HPM_P2
2023/09/13 04:49:06;;;;;;;48.72;35.00;;;21.90;97.50;;;;;;5091556;27;20360;-84
2023/09/13 04:51:31;;;;;;;50.90;35.90;;;21.60;98.20;;;;;;5090126;28;20059;-85
2023/09/13 04:53:57;;;;;;;43.38;31.92;;;21.60;99.30;;;;;;5073158;28;20101;-84
2023/09/13 04:56:22;;;;;;;49.60;35.67;;;21.60;99.50;;;;;;5090511;28;20078;-81
2023/09/13 04:58:48;;;;;;;48.10;34.00;;;21.60;99.50;;;;;;5090596;28;20047;-81
2023/09/13 05:01:16;;;;;;;51.25;36.17;;;21.60;99.60;;;;;;5090682;28;20036;-81
2023/09/13 05:03:41;;;;;;;50.33;35.58;;;21.60;99.50;;;;;;5090903;28;20028;-82
2023/09/13 05:06:07;;;;;;;48.25;35.42;;;21.50;99.40;;;;;;5091262;28;20028;-81
2023/09/13 05:08:33;;;;;;;48.45;34.83;;;21.50;99.50;;;;;;5090652;28;20031;-82
2023/09/13 05:10:58;;;;;;;47.40;34.13;;;21.40;99.70;;;;;;5089473;28;20082;-81
2023/09/13 05:13:24;;;;;;;50.17;36.90;;;21.40;99.80;;;;;;5090758;28;20043;-82
2023/09/13 05:15:50;;;;;;;50.97;36.67;;;21.40;99.60;;;;;;5090471;28;20469;-81
2023/09/13 05:18:15;;;;;;;47.00;34.65;;;21.40;99.50;;;;;;5090764;28;20151;-82
2023/09/13 05:20:41;;;;;;;51.60;35.55;;;21.40;99.60;;;;;;5090797;28;20032;-82
2023/09/13 05:23:06;;;;;;;48.58;35.90;;;21.30;99.50;;;;;;5089580;28;20032;-82
2023/09/13 05:25:33;;;;;;;43.33;32.85;;;21.20;99.70;;;;;;5072674;28;20376;-80
2023/09/13 05:27:59;;;;;;;34.30;25.88;;;21.10;99.80;;;;;;5089982;28;20028;-75
2023/09/13 05:30:28;;;;;;;31.00;23.08;;;21.20;99.90;;;;;;5089035;28;20499;-76
2023/09/13 05:32:53;;;;;;;29.60;22.42;;;21.30;99.90;;;;;;5089570;28;20465;-75
2023/09/13 05:35:19;;;;;;;36.42;25.08;;;21.50;99.90;;;;;;5072611;28;20028;-77
2023/09/13 05:37:44;;;;;;;38.58;28.95;;;21.70;99.90;;;;;;5106261;28;20036;-76
2023/09/13 05:40:11;;;;;;;36.50;26.67;;;21.80;99.50;;;;;;5090071;28;20492;-75
2023/09/13 05:42:36;;;;;;;38.35;27.58;;;21.90;99.40;;;;;;5089961;28;20028;-76
2023/09/13 05:45:02;;;;;;;33.67;26.35;;;22.00;99.30;;;;;;5089876;28;20024;-75
2023/09/13 05:47:28;;;;;;;38.42;26.67;;;22.00;99.00;;;;;;5089870;28;20381;-76
2023/09/13 05:49:55;;;;;;;28.90;22.65;;;22.10;99.00;;;;;;5089989;28;20039;-75
2023/09/13 05:52:20;;;;;;;30.38;22.90;;;22.20;98.80;;;;;;5089758;28;20063;-75
2023/09/13 05:54:46;;;;;;;36.20;26.05;;;22.20;98.70;;;;;;5089040;28;20480;-74
2023/09/13 05:57:11;;;;;;;35.35;27.15;;;22.10;98.60;;;;;;5088602;28;20056;-76
2023/09/13 05:59:39;;;;;;;31.33;25.48;;;22.10;98.50;;;;;;5079785;28;20064;-75
2023/09/13 06:02:06;;;;;;;35.30;26.38;;;22.20;98.40;;;;;;5076325;28;20029;-76
2023/09/13 06:04:32;;;;;;;19.35;15.27;;;22.20;98.50;;;;;;5076326;28;20115;-76
2023/09/13 06:06:57;;;;;;;16.77;13.35;;;22.30;98.60;;;;;;5075910;28;20551;-76
2023/09/13 06:09:23;;;;;;;26.85;20.52;;;22.50;98.40;;;;;;5076258;28;20115;-82
2023/09/13 06:11:49;;;;;;;30.25;24.13;;;22.70;98.10;;;;;;5070886;28;20027;-79
2023/09/13 06:14:16;;;;;;;37.60;27.75;;;22.60;97.60;;;;;;5064437;28;20025;-78
2023/09/13 06:16:42;;;;;;;36.92;27.60;;;22.50;97.50;;;;;;5056268;28;20025;-79
2023/09/13 06:19:07;;;;;;;41.67;28.88;;;22.30;97.50;;;;;;5054377;28;20496;-81
2023/09/13 06:21:33;;;;;;;43.35;31.35;;;22.10;97.80;;;;;;5054538;28;20072;-80
2023/09/13 06:23:59;;;;;;;40.17;28.48;;;22.00;98.00;;;;;;5054363;28;20082;-81
2023/09/13 06:26:24;;;;;;;37.15;29.25;;;22.00;98.20;;;;;;5055435;28;20163;-80
2023/09/13 06:28:50;;;;;;;41.63;29.38;;;21.90;98.50;;;;;;5054452;28;20045;-78
2023/09/13 06:31:16;;;;;;;39.85;28.05;;;21.80;98.60;;;;;;5055431;28;20029;-79
2023/09/13 06:33:42;;;;;;;41.35;31.75;;;21.70;98.70;;;;;;5055545;28;20408;-78
2023/09/13 06:36:08;;;;;;;44.45;32.25;;;21.80;99.00;;;;;;5055514;28;20039;-77
2023/09/13 06:38:34;;;;;;;42.38;29.88;;;21.70;99.00;;;;;;5060692;28;20039;-79
2023/09/13 06:40:59;;;;;;;39.67;28.23;;;21.60;99.20;;;;;;5073829;28;20058;-79
2023/09/13 06:43:25;;;;;;;41.70;27.73;;;21.60;99.30;;;;;;5075197;28;20036;-77
2023/09/13 06:45:51;;;;;;;36.85;28.17;;;21.50;99.30;;;;;;5074875;28;20069;-77
2023/09/13 06:48:18;;;;;;;33.72;25.83;;;21.50;99.50;;;;;;5074918;28;20056;-79
2023/09/13 06:50:44;;;;;;;37.08;26.80;;;21.60;99.60;;;;;;5073821;28;20040;-77
2023/09/13 06:53:11;;;;;;;34.90;25.05;;;21.60;99.90;;;;;;5074605;28;20415;-79
2023/09/13 06:55:37;;;;;;;31.88;22.30;;;21.70;99.60;;;;;;5074308;28;20495;-79
2023/09/13 06:58:06;;;;;;;34.88;25.17;;;21.60;99.40;;;;;;5072954;28;20033;-77
2023/09/13 07:00:32;;;;;;;21.90;14.73;;;21.60;99.60;;;;;;5074742;28;20025;-79
2023/09/13 07:02:58;;;;;;;11.73;8.10;;;21.40;99.00;;;;;;5075095;28;20423;-83
2023/09/13 07:05:23;;;;;;;5.15;3.60;;;21.50;99.10;;;;;;5075297;28;20036;-84
2023/09/13 07:07:49;;;;;;;5.85;2.83;;;21.30;97.70;;;;;;5075095;28;20080;-85
2023/09/13 07:10:15;;;;;;;2.63;1.50;;;21.20;97.70;;;;;;5074389;28;20032;-84
2023/09/13 07:12:41;;;;;;;2.88;1.50;;;21.10;97.40;;;;;;5074347;28;20031;-82
2023/09/13 07:15:07;;;;;;;2.47;1.50;;;21.20;97.30;;;;;;5056718;28;20036;-85
2023/09/13 07:17:33;;;;;;;1.45;0.73;;;21.10;96.70;;;;;;5073814;28;20033;-86
2023/09/13 07:19:59;;;;;;;1.15;0.50;;;21.10;96.40;;;;;;5075136;28;20115;-84
2023/09/13 07:22:24;;;;;;;1.83;0.35;;;21.00;96.40;;;;;;5082961;28;20123;-86
2023/09/13 07:24:51;;;;;;;1.98;0.20;;;20.90;95.60;;;;;;5084839;28;20058;-82
2023/09/13 07:27:16;;;;;;;1.25;0.43;;;20.70;95.00;;;;;;5082857;28;20489;-85
2023/09/13 07:29:42;;;;;;;2.53;0.55;;;20.60;95.90;;;;;;5086275;28;20108;-85
2023/09/13 07:32:08;;;;;;;2.67;0.63;;;20.70;96.00;;;;;;5094894;28;20039;-85
2023/09/13 07:34:34;;;;;;;2.35;0.40;;;20.70;95.70;;;;;;5094700;28;20032;-84
2023/09/13 07:36:59;;;;;;;1.75;0.55;;;20.70;95.50;;;;;;5094791;28;20455;-87
2023/09/13 07:39:25;;;;;;;2.08;0.40;;;20.80;95.70;;;;;;5093233;28;20472;-85
2023/09/13 07:41:51;;;;;;;2.20;1.02;;;20.90;95.40;;;;;;5076474;28;20024;-83
2023/09/13 07:44:17;;;;;;;1.60;0.52;;;21.00;96.00;;;;;;5094299;28;20028;-83
2023/09/13 07:46:43;;;;;;;2.10;0.40;;;21.10;95.10;;;;;;5094601;28;20094;-83
2023/09/13 07:49:08;;;;;;;1.48;0.40;;;21.10;95.10;;;;;;5094216;28;20064;-83
2023/09/13 07:51:34;;;;;;;2.28;0.50;;;21.10;95.00;;;;;;5073028;28;20120;-82
2023/09/13 07:54:04;;;;;;;1.55;0.60;;;21.20;95.60;;;;;;5074209;28;20029;-87
2023/09/13 07:56:32;;;;;;;2.15;0.50;;;21.40;95.40;;;;;;5074578;28;20036;-86
2023/09/13 07:58:57;;;;;;;1.48;0.45;;;21.70;95.20;;;;;;5072966;28;20067;-84
2023/09/13 08:01:23;;;;;;;1.15;0.40;;;21.80;94.30;;;;;;5073727;28;20060;-84
2023/09/13 08:03:49;;;;;;;1.00;0.40;;;21.80;94.30;;;;;;5072844;28;20027;-82
2023/09/13 08:06:14;;;;;;;1.90;0.43;;;22.00;94.20;;;;;;5074052;28;20078;-82
2023/09/13 08:08:40;;;;;;;1.95;0.60;;;21.90;92.90;;;;;;5075231;28;20091;-83
2023/09/13 08:11:06;;;;;;;0.90;0.20;;;21.90;93.50;;;;;;5076259;28;20477;-83
2023/09/13 08:13:31;;;;;;;1.20;0.30;;;21.80;92.70;;;;;;5076398;28;20028;-83
2023/09/13 08:15:58;;;;;;;1.90;0.50;;;21.70;93.20;;;;;;5076948;28;20020;-83
2023/09/13 08:18:23;;;;;;;1.05;0.20;;;21.80;93.90;;;;;;5077057;28;20122;-83
2023/09/13 08:20:50;;;;;;;1.05;0.30;;;21.70;92.40;;;;;;5077234;28;20050;-83
2023/09/13 08:23:16;;;;;;;1.40;0.25;;;21.60;92.70;;;;;;5079327;28;20037;-85
2023/09/13 08:25:42;;;;;;;0.63;0.25;;;21.40;92.80;;;;;;5077326;28;20372;-83
2023/09/13 08:28:09;;;;;;;1.17;0.20;;;21.40;93.40;;;;;;5073071;28;20036;-85
2023/09/13 08:30:35;;;;;;;1.25;0.30;;;21.50;93.20;;;;;;5074203;28;20025;-83
2023/09/13 08:33:00;;;;;;;2.45;0.47;;;21.40;93.10;;;;;;5072465;28;20036;-84
2023/09/13 08:35:26;;;;;;;0.98;0.32;;;21.30;92.90;;;;;;5073557;28;20035;-82
2023/09/13 08:37:52;;;;;;;3.05;0.50;;;21.20;93.40;;;;;;5055670;28;20033;-83
2023/09/13 08:40:17;;;;;;;1.35;0.30;;;21.40;93.40;;;;;;5072200;28;20400;-86
2023/09/13 08:42:44;;;;;;;1.40;0.30;;;21.50;93.00;;;;;;5061387;28;20027;-81
2023/09/13 08:45:11;;;;;;;1.10;0.30;;;21.60;93.00;;;;;;5079198;28;20029;-81
2023/09/13 08:47:41;;;;;;;2.55;0.50;;;21.60;92.90;;;;;;5073644;28;20052;-82
2023/09/13 08:50:08;;;;;;;2.60;0.73;;;21.70;92.70;;;;;;5093433;28;20028;-83
2023/09/13 08:52:35;;;;;;;1.10;0.45;;;21.90;92.20;;;;;;5092267;28;20040;-81
2023/09/13 08:55:04;;;;;;;1.13;0.30;;;21.80;92.00;;;;;;5078769;28;20021;-83
2023/09/13 08:57:33;;;;;;;1.98;0.50;;;21.90;92.30;;;;;;5073264;28;20151;-79
2023/09/13 08:59:58;;;;;;;1.00;0.22;;;21.90;91.90;;;;;;5075646;28;20378;-83
2023/09/13 09:02:26;;;;;;;2.90;0.40;;;21.90;91.70;;;;;;5093315;28;20062;-81
2023/09/13 09:04:52;;;;;;;2.10;0.35;;;21.80;91.70;;;;;;5072225;28;20520;-82
2023/09/13 09:07:19;;;;;;;1.55;0.30;;;22.00;92.60;;;;;;5072153;28;20341;-81
2023/09/13 09:09:49;;;;;;;1.77;0.40;;;22.30;91.80;;;;;;5073020;28;20097;-81
2023/09/13 09:12:20;;;;;;;1.70;0.40;;;22.50;90.60;;;;;;5073111;28;20142;-81
2023/09/13 09:14:48;;;;;;;1.88;0.20;;;22.30;90.10;;;;;;5072099;28;20040;-82
2023/09/13 09:17:16;;;;;;;1.67;0.50;;;22.30;90.80;;;;;;5071359;28;20071;-80
2023/09/13 09:19:42;;;;;;;1.17;0.20;;;22.40;90.50;;;;;;5072577;28;20043;-81
2023/09/13 09:22:10;;;;;;;1.70;0.30;;;22.30;88.90;;;;;;5071716;28;20469;-80
2023/09/13 09:24:35;;;;;;;0.80;0.20;;;22.10;89.30;;;;;;5072717;28;20060;-79
2023/09/13 09:27:01;;;;;;;1.15;0.40;;;22.20;90.30;;;;;;5071282;28;20064;-81
2023/09/13 09:29:36;;;;;;;3.22;0.50;;;22.50;90.40;;;;;;5071501;28;20033;-81
2023/09/13 09:32:07;;;;;;;1.98;0.50;;;22.80;90.20;;;;;;5072346;28;20021;-80
2023/09/13 09:34:33;;;;;;;2.22;0.57;;;23.00;89.10;;;;;;5074461;28;20070;-81
2023/09/13 09:37:07;;;;;;;1.90;0.40;;;23.10;88.00;;;;;;5075132;28;20131;-81
2023/09/13 09:39:37;;;;;;;2.03;0.40;;;23.30;89.10;;;;;;5076539;28;20032;-78
2023/09/13 09:42:03;;;;;;;3.35;0.32;;;23.50;86.70;;;;;;5075800;28;20029;-79
2023/09/13 09:44:29;;;;;;;2.30;0.30;;;23.60;87.00;;;;;;5076710;28;20380;-82
2023/09/13 09:46:55;;;;;;;1.60;0.40;;;23.70;87.20;;;;;;5091156;28;20047;-81
2023/09/13 09:49:21;;;;;;;2.83;0.40;;;23.80;85.50;;;;;;5084670;28;20024;-80
2023/09/13 09:51:47;;;;;;;1.13;0.22;;;23.90;85.00;;;;;;5076300;28;20453;-80
2023/09/13 09:54:12;;;;;;;1.77;0.30;;;23.90;85.40;;;;;;5076259;28;20029;-80
2023/09/13 09:56:40;;;;;;;1.55;0.32;;;24.00;84.70;;;;;;5076845;28;20485;-80
2023/09/13 09:59:05;;;;;;;2.55;0.30;;;24.00;85.30;;;;;;5075950;28;20063;-81
2023/09/13 10:01:31;;;;;;;1.88;0.40;;;24.10;85.40;;;;;;5075998;28;20477;-80
2023/09/13 10:04:10;;;;;;;1.38;0.22;;;24.20;83.80;;;;;;5075936;28;20035;-81
2023/09/13 10:06:36;;;;;;;1.58;0.30;;;24.30;84.10;;;;;;5076209;28;20024;-80
2023/09/13 10:09:04;;;;;;;1.08;0.30;;;24.40;84.40;;;;;;5074556;28;20051;-79
2023/09/13 10:11:30;;;;;;;3.10;0.38;;;24.50;83.70;;;;;;5082911;28;20495;-81
2023/09/13 10:13:55;;;;;;;1.92;0.40;;;24.50;83.30;;;;;;5085913;28;20032;-78
2023/09/13 10:16:26;;;;;;;3.38;0.45;;;24.70;83.40;;;;;;5085325;28;20024;-82
2023/09/13 10:18:52;;;;;;;2.85;0.45;;;24.80;82.80;;;;;;5074299;28;20089;-80
2023/09/13 10:21:32;;;;;;;1.40;0.40;;;24.80;81.30;;;;;;5075205;28;20033;-81
2023/09/13 10:24:20;;;;;;;2.00;0.32;;;24.80;82.70;;;;;;5072351;28;20032;-82
2023/09/13 10:26:49;;;;;;;1.95;0.50;;;24.90;82.90;;;;;;5073816;28;20119;-79
2023/09/13 10:29:15;;;;;;;1.98;0.50;;;24.90;80.20;;;;;;5072616;28;20140;-86
2023/09/13 10:31:48;;;;;;;1.00;0.25;;;24.90;80.70;;;;;;5075376;28;20460;-86
2023/09/13 10:34:25;;;;;;;2.10;0.68;;;25.00;80.90;;;;;;5073832;28;20461;-85
2023/09/13 10:37:03;;;;;;;3.28;0.68;;;25.00;79.30;;;;;;5056503;28;20029;-84
2023/09/13 10:39:37;;;;;;;4.20;0.75;;;25.00;79.10;;;;;;5057816;28;20032;-85
2023/09/13 10:42:11;;;;;;;1.80;0.77;;;24.90;79.00;;;;;;5057918;28;20025;-85
2023/09/13 10:44:38;;;;;;;1.95;0.60;;;24.80;78.40;;;;;;5055191;28;20033;-84
2023/09/13 10:47:05;;;;;;;1.95;0.50;;;24.30;77.70;;;;;;5053764;28;20033;-85
2023/09/13 10:49:33;;;;;;;1.58;0.55;;;24.20;80.70;;;;;;5055963;28;20399;-84
2023/09/13 10:51:59;;;;;;;2.83;0.98;;;24.20;80.30;;;;;;5055398;28;20032;-86
2023/09/13 10:54:26;;;;;;;1.75;0.70;;;24.30;80.30;;;;;;5053923;28;20036;-85
2023/09/13 10:56:52;;;;;;;3.75;0.93;;;24.20;80.20;;;;;;5053802;28;20523;-85
2023/09/13 10:59:20;;;;;;;2.00;0.60;;;24.10;79.50;;;;;;5055074;28;20072;-85
2023/09/13 11:01:46;;;;;;;2.50;0.85;;;23.90;79.60;;;;;;5054997;28;20032;-86
2023/09/13 11:04:17;;;;;;;3.92;0.95;;;23.80;80.80;;;;;;5055175;28;20055;-85
2023/09/13 11:06:43;;;;;;;2.97;0.70;;;23.90;81.30;;;;;;5054838;28;20037;-84
2023/09/13 11:09:32;;;;;;;3.47;0.65;;;24.00;81.70;;;;;;5053581;28;20117;-84
2023/09/13 11:11:59;;;;;;;2.97;1.00;;;24.00;80.70;;;;;;5053727;28;20040;-85
2023/09/13 11:14:30;;;;;;;2.30;0.80;;;23.60;78.90;;;;;;5053354;28;20036;-83
2023/09/13 11:17:08;;;;;;;2.42;0.82;;;23.40;80.80;;;;;;5054414;28;20068;-84
2023/09/13 11:19:33;;;;;;;3.53;0.93;;;23.50;82.10;;;;;;5055050;28;20028;-83
2023/09/13 11:22:03;;;;;;;3.03;1.00;;;23.60;82.10;;;;;;5054576;28;20091;-85
2023/09/13 11:24:43;;;;;;;1.35;0.40;;;23.50;80.20;;;;;;5053677;28;20037;-85
2023/09/13 11:27:18;;;;;;;3.53;0.80;;;23.40;82.60;;;;;;5037509;28;20401;-85
2023/09/13 11:29:46;;;;;;;2.35;0.90;;;23.40;81.10;;;;;;5062476;28;20120;-85
2023/09/13 11:32:19;;;;;;;3.40;0.70;;;23.40;81.90;;;;;;5060527;28;20028;-84
2023/09/13 11:34:46;;;;;;;2.53;0.50;;;23.50;81.80;;;;;;5059186;28;20049;-84
2023/09/13 11:37:13;;;;;;;1.67;0.50;;;23.40;79.80;;;;;;5057263;28;20036;-84
2023/09/13 11:39:39;;;;;;;1.48;0.50;;;23.20;80.60;;;;;;5038352;28;20033;-84
2023/09/13 11:42:11;;;;;;;1.90;0.45;;;23.30;81.90;;;;;;5054473;28;20079;-80
2023/09/13 11:44:40;;;;;;;2.28;0.43;;;23.60;80.30;;;;;;5054228;28;20140;-81
2023/09/13 11:47:11;;;;;;;3.03;0.50;;;23.60;78.30;;;;;;5054115;28;20431;-80
2023/09/13 11:49:40;;;;;;;2.50;0.38;;;23.70;80.50;;;;;;5036654;28;20032;-82
2023/09/13 11:52:06;;;;;;;1.80;0.40;;;24.00;79.50;;;;;;5054389;28;20028;-80
2023/09/13 11:54:54;;;;;;;1.60;0.40;;;24.00;78.90;;;;;;5036061;28;20033;-80
2023/09/13 11:57:23;;;;;;;2.03;0.60;;;23.90;77.80;;;;;;5053364;28;20104;-82
2023/09/13 12:00:04;;;;;;;3.65;0.60;;;23.70;78.80;;;;;;5054225;28;20533;-82
2023/09/13 12:02:30;;;;;;;4.63;0.75;;;23.80;79.80;;;;;;5053890;28;20032;-82
2023/09/13 12:04:56;;;;;;;2.00;0.40;;;23.70;78.30;;;;;;5053915;28;20453;-81
2023/09/13 12:07:30;;;;;;;3.47;0.43;;;23.70;79.70;;;;;;5053702;28;20123;-81
2023/09/13 12:09:57;;;;;;;1.75;0.52;;;23.70;78.70;;;;;;5053295;28;20033;-81
2023/09/13 12:12:23;;;;;;;2.75;0.40;;;23.50;78.70;;;;;;5054190;28;20025;-82
2023/09/13 12:14:49;;;;;;;1.42;0.25;;;23.30;77.40;;;;;;5053305;28;20029;-81
2023/09/13 12:17:15;;;;;;;2.15;0.40;;;23.30;79.60;;;;;;5053398;28;20362;-80
2023/09/13 12:19:40;;;;;;;1.20;0.40;;;23.40;82.00;;;;;;5036321;28;20069;-81
2023/09/13 12:22:11;;;;;;;2.40;0.55;;;23.60;80.70;;;;;;5036002;28;20041;-81
2023/09/13 12:24:37;;;;;;;1.80;0.30;;;23.50;78.80;;;;;;5052577;28;20116;-80
2023/09/13 12:27:03;;;;;;;2.03;0.52;;;23.40;79.00;;;;;;5053376;28;20032;-81
2023/09/13 12:29:29;;;;;;;1.10;0.32;;;23.40;81.20;;;;;;5053472;28;20037;-80
2023/09/13 12:31:57;;;;;;;2.25;0.40;;;23.50;79.90;;;;;;5053657;28;20112;-81
2023/09/13 12:34:23;;;;;;;1.52;0.38;;;23.60;81.10;;;;;;5053406;28;20033;-80
2023/09/13 12:36:49;;;;;;;3.92;0.60;;;23.60;81.30;;;;;;5053408;28;20033;-82
2023/09/13 12:39:15;;;;;;;2.95;0.32;;;23.70;82.00;;;;;;5052258;28;20536;-81
2023/09/13 12:41:41;;;;;;;2.17;0.60;;;23.80;82.40;;;;;;5052899;28;20028;-81
2023/09/13 12:44:10;;;;;;;2.85;0.45;;;23.80;82.20;;;;;;5053466;28;20033;-80
2023/09/13 12:46:37;;;;;;;2.72;0.60;;;23.80;82.50;;;;;;5051777;28;20032;-81
2023/09/13 12:49:03;;;;;;;2.25;0.40;;;23.70;81.90;;;;;;5051641;28;20198;-81
2023/09/13 12:51:33;;;;;;;2.15;0.50;;;23.60;82.50;;;;;;5052717;28;20481;-81
2023/09/13 12:54:01;;;;;;;1.92;0.57;;;23.50;82.30;;;;;;5053104;28;20028;-83
2023/09/13 12:56:30;;;;;;;1.65;0.40;;;23.30;82.80;;;;;;5051940;28;20025;-83
2023/09/13 12:58:57;;;;;;;1.90;0.50;;;23.30;83.20;;;;;;5053201;28;20052;-83
2023/09/13 13:01:24;;;;;;;2.50;0.50;;;23.30;84.00;;;;;;5053084;28;20076;-82
2023/09/13 13:04:09;;;;;;;2.08;0.60;;;23.30;82.60;;;;;;5051924;28;20087;-83
2023/09/13 13:07:03;;;;;;;3.22;0.50;;;23.20;82.50;;;;;;5054080;28;20025;-81
2023/09/13 13:09:29;;;;;;;2.15;0.60;;;23.10;83.90;;;;;;5054466;28;20037;-82
2023/09/13 13:11:56;;;;;;;3.72;1.00;;;23.10;83.40;;;;;;5057045;28;20113;-83
2023/09/13 13:14:31;;;;;;;1.63;0.50;;;23.10;83.80;;;;;;5056563;28;20032;-82
2023/09/13 13:16:59;;;;;;;4.28;0.90;;;23.10;84.50;;;;;;5057441;28;20057;-82
2023/09/13 13:19:29;;;;;;;2.30;0.55;;;23.20;84.70;;;;;;5058407;28;20052;-83
2023/09/13 13:21:55;;;;;;;2.88;0.50;;;23.20;84.90;;;;;;5056742;28;20029;-83
2023/09/13 13:24:21;;;;;;;2.20;0.70;;;23.20;85.40;;;;;;5056839;28;20342;-82
2023/09/13 13:26:46;;;;;;;3.38;0.68;;;23.30;85.70;;;;;;5056880;28;20426;-82
2023/09/13 13:29:12;;;;;;;2.15;0.40;;;23.10;84.10;;;;;;5056767;28;20131;-82
2023/09/13 13:31:38;;;;;;;2.67;0.63;;;22.90;84.70;;;;;;5057150;28;20222;-81
2023/09/13 13:34:04;;;;;;;2.95;0.40;;;22.80;84.30;;;;;;5056773;28;20029;-82
2023/09/13 13:36:30;;;;;;;1.70;0.50;;;22.80;84.70;;;;;;5056817;28;20377;-82
2023/09/13 13:38:56;;;;;;;3.47;0.57;;;22.80;84.70;;;;;;5056678;28;20382;-82
2023/09/13 13:41:22;;;;;;;2.03;0.40;;;22.80;83.70;;;;;;5056612;28;20490;-82
2023/09/13 13:43:49;;;;;;;2.00;0.38;;;22.60;84.00;;;;;;5055948;28;20416;-82
2023/09/13 13:46:15;;;;;;;0.77;0.30;;;22.50;83.70;;;;;;5056562;28;20040;-82
2023/09/13 13:48:43;;;;;;;2.70;0.40;;;22.40;84.40;;;;;;5058364;28;20037;-82
2023/09/13 13:51:08;;;;;;;2.15;0.40;;;22.50;85.60;;;;;;5039867;28;20441;-82
2023/09/13 13:53:34;;;;;;;1.77;0.50;;;22.80;85.50;;;;;;5058045;28;20040;-83
2023/09/13 13:56:00;;;;;;;0.95;0.40;;;22.80;83.10;;;;;;5056878;28;20478;-81
2023/09/13 13:58:26;;;;;;;2.15;0.60;;;23.00;83.10;;;;;;5056007;28;20029;-82
2023/09/13 14:00:53;;;;;;;3.58;0.60;;;23.10;83.00;;;;;;5057327;28;20132;-82
2023/09/13 14:03:23;;;;;;;1.42;0.30;;;22.90;81.50;;;;;;5057209;28;20037;-81
2023/09/13 14:05:50;;;;;;;0.80;0.40;;;22.90;82.80;;;;;;5056232;28;20108;-82
2023/09/13 14:08:19;;;;;;;1.30;0.32;;;23.20;83.20;;;;;;5056314;28;20473;-83
2023/09/13 14:10:45;;;;;;;1.17;0.38;;;23.40;82.50;;;;;;5056537;28;20483;-83
2023/09/13 14:13:12;;;;;;;2.50;0.55;;;23.40;81.70;;;;;;5056168;28;20029;-81
2023/09/13 14:15:39;;;;;;;2.25;0.52;;;23.60;82.00;;;;;;5055718;28;20064;-83
2023/09/13 14:18:05;;;;;;;1.83;0.63;;;23.50;80.00;;;;;;5054727;28;20037;-80
2023/09/13 14:20:31;;;;;;;0.98;0.50;;;23.30;80.10;;;;;;5055390;28;20025;-82
2023/09/13 14:22:58;;;;;;;1.75;0.40;;;23.40;82.40;;;;;;5055947;28;20025;-80
2023/09/13 14:25:25;;;;;;;1.42;0.40;;;23.60;83.00;;;;;;5054831;28;20029;-83
2023/09/13 14:27:52;;;;;;;1.27;0.50;;;23.60;79.90;;;;;;5056320;28;20036;-82
2023/09/13 14:30:18;;;;;;;2.13;0.50;;;23.60;80.90;;;;;;5055453;28;20025;-83
2023/09/13 14:32:48;;;;;;;0.80;0.30;;;23.70;81.20;;;;;;5055463;28;20057;-82
2023/09/13 14:35:15;;;;;;;2.05;0.50;;;23.90;81.40;;;;;;5037773;28;20029;-83
2023/09/13 14:37:41;;;;;;;2.28;0.70;;;23.90;79.40;;;;;;5055528;28;20111;-81
2023/09/13 14:40:07;;;;;;;1.90;0.63;;;24.00;79.90;;;;;;5054536;28;20029;-81
2023/09/13 14:42:33;;;;;;;2.97;0.73;;;24.00;77.80;;;;;;5054375;28;20040;-81
2023/09/13 14:44:59;;;;;;;1.25;0.40;;;23.90;78.40;;;;;;5054026;28;20025;-81
2023/09/13 14:47:26;;;;;;;4.38;0.60;;;23.80;79.00;;;;;;5055744;28;20084;-81
2023/09/13 14:49:52;;;;;;;1.17;0.50;;;23.80;77.90;;;;;;5054778;28;20021;-82
2023/09/13 14:52:18;;;;;;;1.15;0.40;;;23.80;78.90;;;;;;5054021;28;20274;-83
2023/09/13 14:54:44;;;;;;;1.23;0.43;;;24.10;79.70;;;;;;5054612;28;20065;-83
2023/09/13 14:57:10;;;;;;;2.88;0.50;;;24.30;79.80;;;;;;5053830;28;20052;-82
2023/09/13 14:59:36;;;;;;;1.52;0.52;;;24.40;79.40;;;;;;5053822;28;20055;-81
2023/09/13 15:02:02;;;;;;;2.35;0.50;;;24.50;77.30;;;;;;5039494;28;20033;-81
2023/09/13 15:04:28;;;;;;;3.38;0.63;;;24.30;75.30;;;;;;5037466;28;20120;-82
2023/09/13 15:06:54;;;;;;;1.75;0.52;;;24.20;76.30;;;;;;5037533;28;20445;-83
2023/09/13 15:09:19;;;;;;;1.27;0.50;;;24.10;77.00;;;;;;5055054;28;20381;-83
2023/09/13 15:11:45;;;;;;;2.17;0.55;;;23.90;78.10;;;;;;5053763;28;20025;-82
2023/09/13 15:14:12;;;;;;;1.63;0.40;;;24.10;79.20;;;;;;5053832;28;20493;-82
2023/09/13 15:16:39;;;;;;;2.03;0.40;;;24.10;78.60;;;;;;5054749;28;20049;-81
2023/09/13 15:19:05;;;;;;;1.10;0.30;;;24.20;79.00;;;;;;5055115;28;20087;-81
2023/09/13 15:21:32;;;;;;;1.95;0.70;;;24.20;77.80;;;;;;5056850;28;20531;-82
2023/09/13 15:23:58;;;;;;;3.55;0.82;;;24.30;78.50;;;;;;5057173;28;20029;-81
2023/09/13 15:26:24;;;;;;;1.92;0.80;;;24.40;78.90;;;;;;5056451;28;20637;-81
2023/09/13 15:28:52;;;;;;;2.03;0.50;;;24.40;77.00;;;;;;5055018;28;20025;-81
2023/09/13 15:31:18;;;;;;;1.10;0.50;;;24.30;76.50;;;;;;5053414;28;20530;-81
2023/09/13 15:33:43;;;;;;;2.15;0.45;;;24.30;77.40;;;;;;5054777;28;20053;-81
2023/09/13 15:36:09;;;;;;;1.45;0.60;;;24.30;76.90;;;;;;5054601;28;20033;-81
2023/09/13 15:38:35;;;;;;;1.67;0.77;;;24.20;75.10;;;;;;5053098;28;20115;-81
2023/09/13 15:41:00;;;;;;;2.42;0.47;;;24.00;76.30;;;;;;5052930;28;20063;-82
2023/09/13 15:43:26;;;;;;;1.40;0.40;;;24.10;78.60;;;;;;5054256;28;20112;-81
2023/09/13 15:45:55;;;;;;;2.15;0.75;;;24.20;78.70;;;;;;5053679;28;20426;-82
2023/09/13 15:48:21;;;;;;;1.38;0.50;;;24.20;78.10;;;;;;5052445;28;20056;-83
2023/09/13 15:50:48;;;;;;;1.52;0.80;;;24.20;77.70;;;;;;5054089;28;20040;-82
2023/09/13 15:53:15;;;;;;;3.60;0.95;;;24.30;78.60;;;;;;5054200;28;20033;-83
2023/09/13 15:55:40;;;;;;;2.00;0.80;;;24.20;75.90;;;;;;5054192;28;20048;-80
2023/09/13 15:58:06;;;;;;;1.02;0.57;;;24.20;77.40;;;;;;5053652;28;20481;-81
2023/09/13 16:00:33;;;;;;;2.10;0.70;;;24.30;79.00;;;;;;5053495;28;20039;-81
2023/09/13 16:03:00;;;;;;;1.35;0.50;;;24.40;78.70;;;;;;5054134;28;20025;-81
2023/09/13 16:05:26;;;;;;;0.95;0.70;;;24.40;79.00;;;;;;5052704;28;20503;-81
2023/09/13 16:07:52;;;;;;;1.45;0.68;;;24.50;77.70;;;;;;5053810;28;20037;-81
2023/09/13 16:10:22;;;;;;;2.88;0.98;;;24.50;77.30;;;;;;5052480;28;20066;-82
2023/09/13 16:12:54;;;;;;;1.02;0.50;;;24.40;76.80;;;;;;5053552;28;20104;-81
2023/09/13 16:15:20;;;;;;;1.63;0.47;;;24.40;77.80;;;;;;5053666;28;20022;-81
2023/09/13 16:17:47;;;;;;;1.75;0.80;;;24.50;78.70;;;;;;5053908;28;20032;-82
2023/09/13 16:20:12;;;;;;;3.92;0.93;;;24.50;75.60;;;;;;5053478;28;20115;-81
2023/09/13 16:22:38;;;;;;;2.40;0.88;;;24.20;74.20;;;;;;5052358;28;20128;-80
2023/09/13 16:25:04;;;;;;;2.50;1.30;;;24.10;76.40;;;;;;5052605;28;20037;-81
2023/09/13 16:27:30;;;;;;;3.50;1.27;;;24.00;74.70;;;;;;5053690;28;20481;-81
2023/09/13 16:29:56;;;;;;;1.90;0.65;;;23.90;75.60;;;;;;5053228;28;20112;-81
2023/09/13 16:32:22;;;;;;;1.88;1.15;;;23.80;76.50;;;;;;5053686;28;20037;-81
2023/09/13 16:34:48;;;;;;;3.15;0.88;;;23.80;77.60;;;;;;5052324;28;20380;-81
2023/09/13 16:37:14;;;;;;;4.10;0.80;;;23.80;77.10;;;;;;5053542;28;20027;-81
2023/09/13 16:39:40;;;;;;;2.45;0.73;;;23.80;78.50;;;;;;5052165;28;20066;-80
2023/09/13 16:42:06;;;;;;;3.10;1.05;;;23.70;77.70;;;;;;5052225;28;20040;-80
2023/09/13 16:44:32;;;;;;;2.35;1.08;;;23.60;78.20;;;;;;5052580;28;20040;-80
2023/09/13 16:46:58;;;;;;;3.13;1.25;;;23.60;78.80;;;;;;5052160;28;20037;-81
2023/09/13 16:49:25;;;;;;;3.45;0.80;;;23.60;78.90;;;;;;5051755;28;20384;-79
2023/09/13 16:51:51;;;;;;;1.90;0.80;;;23.60;79.50;;;;;;5053456;28;20029;-82
2023/09/13 16:54:16;;;;;;;1.88;0.75;;;23.60;79.90;;;;;;5053456;28;20378;-81
2023/09/13 16:56:42;;;;;;;2.38;0.93;;;23.70;80.90;;;;;;5053206;28;20029;-81
2023/09/13 16:59:08;;;;;;;2.22;1.02;;;23.80;80.80;;;;;;5052919;28;20043;-80
2023/09/13 17:01:33;;;;;;;2.10;0.60;;;23.80;79.90;;;;;;5053198;28;20039;-82
2023/09/13 17:04:00;;;;;;;2.10;0.80;;;23.70;80.00;;;;;;5052039;28;20044;-82
2023/09/13 17:06:25;;;;;;;2.35;0.60;;;23.70;81.20;;;;;;5052078;28;20176;-80
2023/09/13 17:08:53;;;;;;;1.60;0.57;;;23.80;81.60;;;;;;5052676;28;20082;-81
2023/09/13 17:11:19;;;;;;;2.22;0.80;;;23.80;81.60;;;;;;5053146;28;20178;-82
2023/09/13 17:13:46;;;;;;;1.95;0.60;;;23.80;81.90;;;;;;5051987;28;20120;-82
2023/09/13 17:16:11;;;;;;;1.92;0.90;;;23.90;82.50;;;;;;5052840;28;20075;-82
2023/09/13 17:18:37;;;;;;;4.47;0.85;;;24.00;82.00;;;;;;5051827;28;20393;-82
2023/09/13 17:21:05;;;;;;;2.55;1.17;;;23.90;81.60;;;;;;5052724;28;20036;-81
2023/09/13 17:23:31;;;;;;;2.28;0.90;;;23.90;80.70;;;;;;5052616;28;20111;-82
2023/09/13 17:25:57;;;;;;;3.45;1.80;;;23.90;81.00;;;;;;5053100;28;20533;-82
2023/09/13 17:28:23;;;;;;;2.42;1.13;;;23.80;80.00;;;;;;5053110;28;20040;-81
2023/09/13 17:30:50;;;;;;;1.75;0.90;;;23.70;80.60;;;;;;5052849;28;20037;-81